createdAt,value
2019-02-04T00:01:42.427Z,6.87
2019-02-04T00:04:10.999Z,8.00
2019-02-04T00:06:39.588Z,6.43
2019-02-04T00:09:09.011Z,6.10
2019-02-04T00:11:37.592Z,9.10
2019-02-04T00:14:06.284Z,7.93
2019-02-04T00:16:40.741Z,10.67
2019-02-04T00:19:05.237Z,6.20
2019-02-04T00:21:33.827Z,5.83
2019-02-04T00:24:02.499Z,12.77
2019-02-04T00:26:31.162Z,6.30
2019-02-04T00:28:59.815Z,6.70
2019-02-04T00:31:28.677Z,11.83
2019-02-04T00:33:57.320Z,6.83
2019-02-04T00:36:25.899Z,6.87
2019-02-04T00:38:55.160Z,18.67
2019-02-04T00:41:23.749Z,7.73
2019-02-04T00:43:52.333Z,8.33
2019-02-04T00:46:20.958Z,6.23
2019-02-04T00:48:49.608Z,9.00
2019-02-04T00:51:18.319Z,9.17
2019-02-04T00:53:47.110Z,9.87
2019-02-04T00:56:15.688Z,11.43
2019-02-04T00:58:44.293Z,6.50
2019-02-04T01:01:12.952Z,6.57
2019-02-04T01:03:41.652Z,7.50
2019-02-04T01:06:10.219Z,8.60
2019-02-04T01:08:38.791Z,6.47
2019-02-04T01:11:07.384Z,7.73
2019-02-04T01:13:35.963Z,8.07
2019-02-04T01:16:04.876Z,8.23
2019-02-04T01:18:33.454Z,6.47
2019-02-04T01:21:02.036Z,11.80
2019-02-04T01:23:30.624Z,5.53
2019-02-04T01:25:59.299Z,7.07
2019-02-04T01:28:27.908Z,7.60
2019-02-04T01:30:56.651Z,13.70
2019-02-04T01:33:25.219Z,7.83
2019-02-04T01:35:53.814Z,10.00
2019-02-04T01:38:22.404Z,7.40
2019-02-04T01:40:50.982Z,9.93
2019-02-04T01:43:19.662Z,9.13
2019-02-04T01:45:48.779Z,8.53
2019-02-04T01:48:17.347Z,10.70
2019-02-04T01:50:45.947Z,8.33
2019-02-04T01:53:15.760Z,10.80
2019-02-04T01:55:44.329Z,7.73
2019-02-04T01:58:12.912Z,7.90
2019-02-04T02:00:41.817Z,7.93
2019-02-04T02:03:10.467Z,10.07
2019-02-04T02:05:39.047Z,7.33
2019-02-04T02:08:27.288Z,16.00
2019-02-04T02:10:56.277Z,10.07
2019-02-04T02:13:24.844Z,8.73
2019-02-04T02:15:53.409Z,7.40
2019-02-04T02:18:22.026Z,7.97
2019-02-04T02:20:50.604Z,8.47
2019-02-04T02:23:19.241Z,10.30
2019-02-04T02:25:48.647Z,7.90
2019-02-04T02:28:17.296Z,7.40
2019-02-04T02:30:45.871Z,8.83
2019-02-04T02:33:14.440Z,9.07
2019-02-04T02:35:43.016Z,9.53
2019-02-04T02:38:11.622Z,7.63
2019-02-04T02:40:40.730Z,10.10
2019-02-04T02:43:11.631Z,7.60
2019-02-04T02:45:39.670Z,8.47
2019-02-04T02:48:08.242Z,7.73
2019-02-04T02:50:37.080Z,10.93
2019-02-04T02:53:05.649Z,9.00
2019-02-04T02:55:34.231Z,11.23
2019-02-04T02:58:02.817Z,8.40
2019-02-04T03:00:31.400Z,7.60
2019-02-04T03:02:59.979Z,8.57
2019-02-04T03:05:28.559Z,6.97
2019-02-04T03:07:57.162Z,9.17
2019-02-04T03:10:31.005Z,7.07
2019-02-04T03:12:59.701Z,10.07
2019-02-04T03:15:28.259Z,8.83
2019-02-04T03:17:56.834Z,8.17
2019-02-04T03:20:25.395Z,6.80
2019-02-04T03:22:53.987Z,6.93
2019-02-04T03:25:22.975Z,9.67
2019-02-04T03:27:51.607Z,8.40
2019-02-04T03:30:28.493Z,8.40
2019-02-04T03:32:57.100Z,12.63
2019-02-04T03:35:25.675Z,7.67
2019-02-04T03:37:54.263Z,9.10
2019-02-04T03:40:24.784Z,6.40
2019-02-04T03:42:53.372Z,8.17
2019-02-04T03:45:22.084Z,12.37
2019-02-04T03:48:03.811Z,13.53
2019-02-04T03:50:20.962Z,9.63
2019-02-04T03:52:50.262Z,8.73
2019-02-04T03:55:18.879Z,14.50
2019-02-04T03:57:47.492Z,6.90
2019-02-04T04:00:18.637Z,8.50
2019-02-04T04:02:49.196Z,7.67
2019-02-04T04:05:18.119Z,8.10
2019-02-04T04:07:47.109Z,8.77
2019-02-04T04:10:17.325Z,8.10
2019-02-04T04:12:45.986Z,7.77
2019-02-04T04:15:14.699Z,10.27
2019-02-04T04:17:43.276Z,6.83
2019-02-04T04:20:13.832Z,7.83
2019-02-04T04:22:42.443Z,8.47
2019-02-04T04:25:12.400Z,5.07
2019-02-04T04:27:40.987Z,6.57
2019-02-04T04:30:27.733Z,9.30
2019-02-04T04:32:56.688Z,6.20
2019-02-04T04:35:25.267Z,5.70
2019-02-04T04:37:53.839Z,7.20
2019-02-04T04:40:22.795Z,6.03
2019-02-04T04:42:51.519Z,5.83
2019-02-04T04:45:21.755Z,5.80
2019-02-04T04:47:50.656Z,4.27
2019-02-04T04:50:19.244Z,4.97
2019-02-04T04:52:50.595Z,8.27
2019-02-04T04:55:26.640Z,8.37
2019-02-04T04:57:55.273Z,4.70
2019-02-04T05:00:27.062Z,9.03
2019-02-04T05:02:55.652Z,8.07
2019-02-04T05:05:24.257Z,7.80
2019-02-04T05:07:52.908Z,6.10
2019-02-04T05:10:21.514Z,5.30
2019-02-04T05:12:50.223Z,8.63
2019-02-04T05:15:21.320Z,6.40
2019-02-04T05:17:52.432Z,7.43
2019-02-04T05:20:20.222Z,8.97
2019-02-04T05:22:49.099Z,7.27
2019-02-04T05:25:17.798Z,10.20
2019-02-04T05:27:46.457Z,7.37
2019-02-04T05:30:16.892Z,5.60
2019-02-04T05:32:45.471Z,8.87
2019-02-04T05:35:14.115Z,8.40
2019-02-04T05:37:42.679Z,11.37
2019-02-04T05:40:12.819Z,8.30
2019-02-04T05:42:41.419Z,7.57
2019-02-04T05:45:10.923Z,6.90
2019-02-04T05:47:39.495Z,6.40
2019-02-04T05:50:10.586Z,7.57
2019-02-04T05:52:39.204Z,7.13
2019-02-04T05:55:07.948Z,6.20
2019-02-04T05:57:36.536Z,7.03
2019-02-04T06:00:06.158Z,6.27
2019-02-04T06:02:34.741Z,7.30
2019-02-04T06:05:03.351Z,7.67
2019-02-04T06:07:31.956Z,11.13
2019-02-04T06:10:00.514Z,7.00
2019-02-04T06:12:29.097Z,6.93
2019-02-04T06:14:57.678Z,9.13
2019-02-04T06:17:26.240Z,9.07
2019-02-04T06:19:54.817Z,10.37
2019-02-04T06:22:23.403Z,17.17
2019-02-04T06:24:51.975Z,10.70
2019-02-04T06:27:20.869Z,9.87
2019-02-04T06:29:49.813Z,7.90
2019-02-04T06:32:18.388Z,10.97
2019-02-04T06:34:47.057Z,7.97
2019-02-04T06:37:15.651Z,7.00
2019-02-04T06:39:44.294Z,6.27
2019-02-04T06:42:12.936Z,9.00
2019-02-04T06:44:41.893Z,9.43
2019-02-04T06:47:10.464Z,8.27
2019-02-04T06:49:39.045Z,6.03
2019-02-04T06:52:07.603Z,6.80
2019-02-04T06:54:36.193Z,9.60
2019-02-04T06:57:04.838Z,7.63
2019-02-04T06:59:33.815Z,13.50
2019-02-04T07:02:02.394Z,10.53
2019-02-04T07:04:31.063Z,5.43
2019-02-04T07:06:59.675Z,7.10
2019-02-04T07:09:28.259Z,7.10
2019-02-04T07:11:56.848Z,7.60
2019-02-04T07:14:25.516Z,4.80
2019-02-04T07:16:54.092Z,8.53
2019-02-04T07:19:24.677Z,7.27
2019-02-04T07:21:53.012Z,10.43
2019-02-04T07:24:21.597Z,6.67
2019-02-04T07:26:50.245Z,9.43
2019-02-04T07:29:18.903Z,9.93
2019-02-04T07:31:48.059Z,12.30
2019-02-04T07:34:16.731Z,5.63
2019-02-04T07:36:45.329Z,6.70
2019-02-04T07:39:13.896Z,7.10
2019-02-04T07:41:42.534Z,6.73
2019-02-04T07:44:11.172Z,8.00
2019-02-04T07:46:40.067Z,10.10
2019-02-04T07:49:08.916Z,9.57
2019-02-04T07:51:37.484Z,7.77
2019-02-04T07:54:06.071Z,8.37
2019-02-04T07:56:34.886Z,9.90
2019-02-04T07:59:03.508Z,6.53
2019-02-04T08:01:32.514Z,7.20
2019-02-04T08:04:01.087Z,7.70
2019-02-04T08:06:29.663Z,7.87
2019-02-04T08:08:58.241Z,7.47
2019-02-04T08:11:26.968Z,8.47
2019-02-04T08:13:55.551Z,7.30
2019-02-04T08:16:24.127Z,6.90
2019-02-04T08:18:52.728Z,6.83
2019-02-04T08:21:21.290Z,7.23
2019-02-04T08:23:49.958Z,7.03
2019-02-04T08:26:18.567Z,7.53
2019-02-04T08:28:47.313Z,6.77
2019-02-04T08:31:15.880Z,9.37
2019-02-04T08:33:44.443Z,6.83
2019-02-04T08:36:13.063Z,9.37
2019-02-04T08:38:44.039Z,8.67
2019-02-04T08:41:12.605Z,7.33
2019-02-04T08:43:41.461Z,8.73
2019-02-04T08:46:10.041Z,9.83
2019-02-04T08:48:39.100Z,5.97
2019-02-04T08:51:07.693Z,5.93
2019-02-04T08:53:36.284Z,5.50
2019-02-04T08:56:04.888Z,6.20
2019-02-04T08:58:33.813Z,5.57
2019-02-04T09:01:02.405Z,7.07
2019-02-04T09:03:31.002Z,5.93
2019-02-04T09:05:59.832Z,6.27
2019-02-04T09:08:28.458Z,4.93
2019-02-04T09:10:57.368Z,5.43
2019-02-04T09:13:26.039Z,5.70
2019-02-04T09:15:54.632Z,6.70
2019-02-04T09:18:23.203Z,8.80
2019-02-04T09:20:51.796Z,5.70
2019-02-04T09:23:20.351Z,5.90
2019-02-04T09:25:49.028Z,6.37
2019-02-04T09:28:17.672Z,5.20
2019-02-04T09:30:48.549Z,5.73
2019-02-04T09:33:19.778Z,6.47
2019-02-04T09:35:48.459Z,6.23
2019-02-04T09:38:17.052Z,5.53
2019-02-04T09:40:45.984Z,4.77
2019-02-04T09:43:14.847Z,5.60
2019-02-04T09:45:44.429Z,8.60
2019-02-04T09:48:18.972Z,6.40
2019-02-04T09:50:49.748Z,7.27
2019-02-04T09:53:18.444Z,5.13
2019-02-04T09:55:47.097Z,7.77
2019-02-04T09:58:15.659Z,8.07
2019-02-04T10:00:44.232Z,9.00
2019-02-04T10:03:13.098Z,7.97
2019-02-04T10:05:41.713Z,5.67
2019-02-04T10:08:10.315Z,6.73
2019-02-04T10:10:58.206Z,6.07
2019-02-04T10:13:26.851Z,7.13
2019-02-04T10:15:55.458Z,5.90
2019-02-04T10:18:24.145Z,5.70
2019-02-04T10:20:52.780Z,6.93
2019-02-04T10:23:21.416Z,6.90
2019-02-04T10:25:50.165Z,6.13
2019-02-04T10:28:18.803Z,6.53
2019-02-04T10:30:47.493Z,6.47
2019-02-04T10:33:16.381Z,7.77
2019-02-04T10:35:45.017Z,5.83
2019-02-04T10:38:16.383Z,6.23
2019-02-04T10:40:43.980Z,7.10
2019-02-04T10:43:12.638Z,6.70
2019-02-04T10:45:41.319Z,6.53
2019-02-04T10:48:10.174Z,7.27
2019-02-04T10:50:46.357Z,6.63
2019-02-04T10:53:10.205Z,7.23
2019-02-04T10:55:38.989Z,6.50
2019-02-04T10:58:09.229Z,7.37
2019-02-04T11:00:38.756Z,7.30
2019-02-04T11:03:07.834Z,6.93
2019-02-04T11:05:36.826Z,6.67
2019-02-04T11:08:06.168Z,7.00
2019-02-04T11:10:35.886Z,8.90
2019-02-04T11:13:09.696Z,7.23
2019-02-04T11:15:38.446Z,8.17
2019-02-04T11:18:07.369Z,7.80
2019-02-04T11:20:36.113Z,7.53
2019-02-04T11:23:05.527Z,8.43
2019-02-04T11:25:34.214Z,13.27
2019-02-04T11:28:02.831Z,9.50
2019-02-04T11:30:36.960Z,9.23
2019-02-04T11:33:05.865Z,10.67
2019-02-04T11:35:34.582Z,11.33
2019-02-04T11:38:03.239Z,11.50
2019-02-04T11:40:33.970Z,10.70
2019-02-04T11:43:02.563Z,12.20
2019-02-04T11:45:31.697Z,10.67
2019-02-04T11:48:00.332Z,12.30
2019-02-04T11:50:29.304Z,11.47
2019-02-04T11:52:57.905Z,12.33
2019-02-04T11:55:26.479Z,11.97
2019-02-04T11:57:55.051Z,11.07
2019-02-04T12:00:25.332Z,11.90
2019-02-04T12:02:54.583Z,11.40
2019-02-04T12:05:23.304Z,9.87
2019-02-04T12:07:51.960Z,12.63
2019-02-04T12:10:29.528Z,14.03
2019-02-04T12:12:58.398Z,11.80
2019-02-04T12:15:27.015Z,10.80
2019-02-04T12:17:55.607Z,12.93
2019-02-04T12:20:24.180Z,13.37
2019-02-04T12:22:52.748Z,13.37
2019-02-04T12:25:23.078Z,17.13
2019-02-04T12:27:51.995Z,13.80
2019-02-04T12:30:30.949Z,13.47
2019-02-04T12:32:59.356Z,13.33
2019-02-04T12:35:27.973Z,12.93
2019-02-04T12:38:15.863Z,17.23
2019-02-04T12:40:44.465Z,11.70
2019-02-04T12:43:13.089Z,11.93
2019-02-04T12:45:42.188Z,14.13
2019-02-04T12:48:30.162Z,13.40
2019-02-04T12:50:58.867Z,12.53
2019-02-04T12:53:27.492Z,11.17
2019-02-04T12:55:56.111Z,9.93
2019-02-04T12:58:25.048Z,13.27
2019-02-04T13:00:53.743Z,13.03
2019-02-04T13:03:22.455Z,11.50
2019-02-04T13:05:53.538Z,12.80
2019-02-04T13:08:22.123Z,15.70
2019-02-04T13:10:50.700Z,14.83
2019-02-04T13:13:21.164Z,15.67
2019-02-04T13:15:49.801Z,11.57
2019-02-04T13:18:18.536Z,12.73
2019-02-04T13:20:48.827Z,12.70
2019-02-04T13:23:17.401Z,13.10
2019-02-04T13:25:45.992Z,12.63
2019-02-04T13:28:17.686Z,13.67
2019-02-04T13:30:46.465Z,14.07
2019-02-04T13:33:15.086Z,12.03
2019-02-04T13:35:44.116Z,13.50
2019-02-04T13:38:12.740Z,13.73
2019-02-04T13:40:44.382Z,16.07
2019-02-04T13:43:12.769Z,17.10
2019-02-04T13:45:41.447Z,16.03
2019-02-04T13:48:10.554Z,13.67
2019-02-04T13:50:39.880Z,12.83
2019-02-04T13:53:08.577Z,13.10
2019-02-04T13:55:37.168Z,11.47
2019-02-04T13:58:05.898Z,13.37
2019-02-04T14:00:40.481Z,15.07
2019-02-04T14:03:09.612Z,13.13
2019-02-04T14:05:38.184Z,19.33
2019-02-04T14:08:06.844Z,15.90
2019-02-04T14:10:37.528Z,13.27
2019-02-04T14:13:06.679Z,17.47
2019-02-04T14:15:35.777Z,13.90
2019-02-04T14:18:05.654Z,14.63
2019-02-04T14:20:34.235Z,14.43
2019-02-04T14:23:02.826Z,17.83
2019-02-04T14:25:31.528Z,16.63
2019-02-04T14:28:02.950Z,17.33
2019-02-04T14:30:31.981Z,16.93
2019-02-04T14:33:00.555Z,17.83
2019-02-04T14:35:29.143Z,15.87
2019-02-04T14:37:57.983Z,15.93
2019-02-04T14:40:26.965Z,14.27
2019-02-04T14:43:35.775Z,16.17
2019-02-04T14:46:26.141Z,18.80
2019-02-04T14:49:35.075Z,15.43
2019-02-04T14:52:25.260Z,17.07
2019-02-04T14:55:27.560Z,16.57
2019-02-04T14:58:13.779Z,18.53
2019-02-04T15:01:38.368Z,19.13
2019-02-04T15:04:30.855Z,19.67
2019-02-04T15:07:47.469Z,14.87
2019-02-04T15:10:44.592Z,18.17
2019-02-04T15:13:39.132Z,15.87
2019-02-04T15:16:32.125Z,18.50
2019-02-04T15:19:55.030Z,17.23
2019-02-04T15:22:47.432Z,15.43
2019-02-04T15:25:57.652Z,14.80
2019-02-04T15:28:55.186Z,17.63
2019-02-04T15:31:33.595Z,14.57
2019-02-04T15:34:39.721Z,18.43
2019-02-04T15:37:27.686Z,14.63
2019-02-04T15:40:12.112Z,19.50
2019-02-04T15:43:04.205Z,17.77
2019-02-04T15:46:12.449Z,20.23
2019-02-04T15:48:54.116Z,18.83
2019-02-04T15:51:28.023Z,18.53
2019-02-04T15:53:58.153Z,17.83
2019-02-04T15:56:26.744Z,20.30
2019-02-04T15:58:55.336Z,18.73
2019-02-04T16:01:23.923Z,18.40
2019-02-04T16:03:52.499Z,21.93
2019-02-04T16:06:21.059Z,18.63
2019-02-04T16:08:49.848Z,17.97
2019-02-04T16:11:18.529Z,20.30
2019-02-04T16:13:47.311Z,19.60
2019-02-04T16:16:15.937Z,15.70
2019-02-04T16:18:44.597Z,17.60
2019-02-04T16:21:13.184Z,17.50
2019-02-04T16:23:42.294Z,16.17
2019-02-04T16:26:10.871Z,16.73
2019-02-04T16:28:39.443Z,16.73
2019-02-04T16:31:08.601Z,18.53
2019-02-04T16:33:37.168Z,19.73
2019-02-04T16:36:05.784Z,19.50
2019-02-04T16:38:34.385Z,17.47
2019-02-04T16:41:02.980Z,19.17
2019-02-04T16:43:50.876Z,16.43
2019-02-04T16:46:19.534Z,18.87
2019-02-04T16:48:48.375Z,19.47
2019-02-04T16:51:17.618Z,19.27
2019-02-04T16:53:47.346Z,19.37
2019-02-04T16:56:15.969Z,21.57
2019-02-04T16:58:44.551Z,23.23
2019-02-04T17:01:13.187Z,21.97
2019-02-04T17:03:41.865Z,20.53
2019-02-04T17:06:10.471Z,26.83
2019-02-04T17:08:39.083Z,23.50
2019-02-04T17:11:07.670Z,22.57
2019-02-04T17:13:36.256Z,28.90
2019-02-04T17:16:05.177Z,21.90
2019-02-04T17:18:33.907Z,21.93
2019-02-04T17:21:02.522Z,23.83
2019-02-04T17:23:31.199Z,26.53
2019-02-04T17:25:59.904Z,26.67
2019-02-04T17:28:28.547Z,25.40
2019-02-04T17:30:57.134Z,21.67
2019-02-04T17:33:25.721Z,25.10
2019-02-04T17:35:54.336Z,24.43
2019-02-04T17:38:23.310Z,22.93
2019-02-04T17:40:51.904Z,24.80
2019-02-04T17:43:20.493Z,29.23
2019-02-04T17:45:51.685Z,22.73
2019-02-04T17:48:20.365Z,27.87
2019-02-04T17:50:49.509Z,22.80
2019-02-04T17:53:18.554Z,28.23
2019-02-04T17:55:47.512Z,28.23
2019-02-04T17:58:16.122Z,25.10
2019-02-04T18:00:50.071Z,30.47
2019-02-04T18:03:18.864Z,23.43
2019-02-04T18:05:47.559Z,26.63
2019-02-04T18:08:16.781Z,30.00
2019-02-04T18:10:45.383Z,28.87
2019-02-04T18:13:14.039Z,29.13
2019-02-04T18:15:42.652Z,28.17
2019-02-04T18:18:11.253Z,27.37
2019-02-04T18:20:39.856Z,26.17
2019-02-04T18:23:11.226Z,27.67
2019-02-04T18:25:39.147Z,26.03
2019-02-04T18:28:07.764Z,31.93
2019-02-04T18:30:36.711Z,29.30
2019-02-04T18:33:05.299Z,27.87
2019-02-04T18:35:34.364Z,29.90
2019-02-04T18:38:02.965Z,33.07
2019-02-04T18:40:31.559Z,28.30
2019-02-04T18:43:00.155Z,32.43
2019-02-04T18:45:29.884Z,33.33
2019-02-04T18:47:58.468Z,34.07
2019-02-04T18:50:27.560Z,31.30
2019-02-04T18:52:56.213Z,44.73
2019-02-04T18:55:27.204Z,41.30
2019-02-04T18:57:55.811Z,38.47
2019-02-04T19:00:44.077Z,30.93
2019-02-04T19:03:17.622Z,35.13
2019-02-04T19:05:47.620Z,35.07
2019-02-04T19:08:37.455Z,32.00
2019-02-04T19:10:56.265Z,38.47
2019-02-04T19:13:35.859Z,35.97
2019-02-04T19:15:56.393Z,37.67
2019-02-04T19:18:25.220Z,41.50
2019-02-04T19:20:56.427Z,38.90
2019-02-04T19:23:27.039Z,44.40
2019-02-04T19:25:55.398Z,46.50
2019-02-04T19:28:23.979Z,36.50
2019-02-04T19:31:31.253Z,43.67
2019-02-04T19:33:59.920Z,45.60
2019-02-04T19:36:28.510Z,41.13
2019-02-04T19:38:57.102Z,44.63
2019-02-04T19:41:25.694Z,42.23
2019-02-04T19:43:54.284Z,48.93
2019-02-04T19:46:23.153Z,53.30
2019-02-04T19:48:51.761Z,50.27
2019-02-04T19:51:20.645Z,40.50
2019-02-04T19:53:49.488Z,41.17
2019-02-04T19:56:18.435Z,54.90
2019-02-04T19:58:47.099Z,40.80
2019-02-04T20:01:15.690Z,54.33
2019-02-04T20:03:44.280Z,48.57
2019-02-04T20:06:13.248Z,55.60
2019-02-04T20:08:41.879Z,43.33
2019-02-04T20:11:10.483Z,53.50
2019-02-04T20:13:39.072Z,62.97
2019-02-04T20:16:07.753Z,46.90
2019-02-04T20:18:36.343Z,53.57
2019-02-04T20:21:05.097Z,54.47
2019-02-04T20:23:33.739Z,51.87
2019-02-04T20:26:02.341Z,55.50
2019-02-04T20:28:31.211Z,43.43
2019-02-04T20:30:59.834Z,40.10
2019-02-04T20:33:28.389Z,57.87
2019-02-04T20:35:57.028Z,60.43
2019-02-04T20:38:27.376Z,51.70
2019-02-04T20:40:56.037Z,60.80
2019-02-04T20:43:24.654Z,48.90
2019-02-04T20:45:53.211Z,71.03
2019-02-04T20:48:21.801Z,58.50
2019-02-04T20:50:50.491Z,70.90
2019-02-04T20:53:38.421Z,59.53
2019-02-04T20:56:07.020Z,57.40
2019-02-04T20:58:35.596Z,60.37
2019-02-04T21:01:04.296Z,58.83
2019-02-04T21:03:32.899Z,61.80
2019-02-04T21:06:01.969Z,61.23
2019-02-04T21:08:30.561Z,54.50
2019-02-04T21:10:59.187Z,65.73
2019-02-04T21:13:27.871Z,57.60
2019-02-04T21:15:56.473Z,78.20
2019-02-04T21:18:25.091Z,65.90
2019-02-04T21:20:53.676Z,60.93
2019-02-04T21:23:22.265Z,56.20
2019-02-04T21:25:50.892Z,66.80
2019-02-04T21:28:19.504Z,54.77
2019-02-04T21:30:48.227Z,60.67
2019-02-04T21:33:16.864Z,50.90
2019-02-04T21:35:45.500Z,69.23
2019-02-04T21:38:14.642Z,69.57
2019-02-04T21:40:43.223Z,56.57
2019-02-04T21:43:11.819Z,57.97
2019-02-04T21:45:40.405Z,61.03
2019-02-04T21:48:09.032Z,52.47
2019-02-04T21:50:37.610Z,52.20
2019-02-04T21:53:06.725Z,63.53
2019-02-04T21:55:35.352Z,59.73
2019-02-04T21:58:04.332Z,50.27
2019-02-04T22:00:35.163Z,55.40
2019-02-04T22:03:03.747Z,56.23
2019-02-04T22:05:33.347Z,52.47
2019-02-04T22:08:02.427Z,42.20
2019-02-04T22:10:31.070Z,45.20
2019-02-04T22:12:59.923Z,59.10
2019-02-04T22:15:28.592Z,54.90
2019-02-04T22:17:57.224Z,52.17
2019-02-04T22:20:25.791Z,60.50
2019-02-04T22:22:54.440Z,64.70
2019-02-04T22:25:23.573Z,56.70
2019-02-04T22:27:52.209Z,60.07
2019-02-04T22:30:22.658Z,58.57
2019-02-04T22:32:51.276Z,50.27
2019-02-04T22:35:19.853Z,66.60
2019-02-04T22:37:48.559Z,53.90
2019-02-04T22:40:22.122Z,62.83
2019-02-04T22:42:50.798Z,53.77
2019-02-04T22:45:19.408Z,55.90
2019-02-04T22:47:48.076Z,56.80
2019-02-04T22:50:21.265Z,44.23
2019-02-04T22:52:49.940Z,65.33
2019-02-04T22:55:31.093Z,57.27
2019-02-04T22:57:50.340Z,53.40
2019-02-04T23:00:45.215Z,51.77
2019-02-04T23:03:14.524Z,51.73
2019-02-04T23:05:43.177Z,43.63
2019-02-04T23:08:11.778Z,43.80
2019-02-04T23:10:40.390Z,54.97
2019-02-04T23:13:09.096Z,42.57
2019-02-04T23:15:38.021Z,47.53
2019-02-04T23:18:06.740Z,51.50
2019-02-04T23:20:35.314Z,67.43
2019-02-04T23:23:04.182Z,53.57
2019-02-04T23:25:43.122Z,60.57
2019-02-04T23:28:03.216Z,59.63
2019-02-04T23:30:32.006Z,55.87
2019-02-04T23:33:00.612Z,54.67
2019-02-04T23:35:29.210Z,59.00
2019-02-04T23:37:57.791Z,63.97
2019-02-04T23:40:26.386Z,60.63
2019-02-04T23:42:54.964Z,59.47
2019-02-04T23:45:26.539Z,62.77
2019-02-04T23:47:55.399Z,40.23
2019-02-04T23:50:23.986Z,56.40
2019-02-04T23:52:52.580Z,59.83
2019-02-04T23:55:21.244Z,75.13
2019-02-04T23:57:49.888Z,58.43
